Time;durP1;ratioP1;P1;durP2;ratioP2;P2;SDS_P1;SDS_P2;PMS_P1;PMS_P2;Temp;Humidity;BMP_temperature;BMP_pressure;BME280_temperature;BME280_humidity;BME280_pressure;Samples;Min_cycle;Max_cycle;Signal;HPM_P1;HPM_P2
2023/11/10 00:03:12;;;;;;;2.13;0.80;;;;;;;;;;10097871;29;20055;-76
2023/11/10 00:08:17;;;;;;;1.20;0.90;;;;;;;;;;10112052;29;20720;-76
2023/11/10 00:13:21;;;;;;;1.02;0.70;;;;;;;;;;10111944;29;20131;-76
2023/11/10 00:18:24;;;;;;;1.13;0.50;;;;;;;;;;10119517;29;20061;-76
2023/11/10 00:23:29;;;;;;;0.68;0.68;;;;;;;;;;10104462;29;20139;-76
2023/11/10 00:28:32;;;;;;;3.47;0.70;;;;;;;;;;10119633;29;20075;-76
2023/11/10 00:33:35;;;;;;;1.42;0.60;;;;;;;;;;10117829;29;20052;-76
2023/11/10 00:38:40;;;;;;;1.15;0.88;;;;;;;;;;10105865;29;20140;-76
2023/11/10 00:43:43;;;;;;;0.82;0.30;;;;;;;;;;10116543;29;20059;-76
2023/11/10 00:48:47;;;;;;;1.48;0.70;;;;;;;;;;10125105;29;20048;-76
2023/11/10 00:53:51;;;;;;;1.23;0.60;;;;;;;;;;10125655;29;20395;-76
2023/11/10 00:58:55;;;;;;;2.25;0.50;;;;;;;;;;10114835;29;20049;-76
2023/11/10 01:03:59;;;;;;;1.65;0.40;;;;;;;;;;10098216;29;20056;-76
2023/11/10 01:09:04;;;;;;;1.10;0.40;;;;;;;;;;10121999;29;20052;-76
2023/11/10 01:14:07;;;;;;;0.50;0.50;;;;;;;;;;10122628;29;20047;-77
2023/11/10 01:19:11;;;;;;;0.50;0.47;;;;;;;;;;10117331;29;20079;-76
2023/11/10 01:24:16;;;;;;;0.65;0.40;;;;;;;;;;10114326;29;20037;-76
2023/11/10 01:29:20;;;;;;;3.30;0.67;;;;;;;;;;10122093;29;20049;-76
2023/11/10 01:34:24;;;;;;;2.05;0.40;;;;;;;;;;10122335;29;20036;-76
2023/11/10 01:39:29;;;;;;;0.65;0.40;;;;;;;;;;10112933;29;20105;-76
2023/11/10 01:44:33;;;;;;;0.63;0.38;;;;;;;;;;10126306;29;20593;-76
2023/11/10 01:49:38;;;;;;;0.65;0.40;;;;;;;;;;10107398;29;20131;-76
2023/11/10 01:54:43;;;;;;;0.57;0.40;;;;;;;;;;10114947;29;20420;-76
2023/11/10 01:59:49;;;;;;;1.80;0.40;;;;;;;;;;10124794;29;20687;-76
2023/11/10 02:04:52;;;;;;;1.02;0.60;;;;;;;;;;10099368;29;20124;-76
2023/11/10 02:09:57;;;;;;;0.80;0.50;;;;;;;;;;10118297;29;20139;-76
2023/11/10 02:15:03;;;;;;;2.03;0.40;;;;;;;;;;10108646;29;20132;-76
2023/11/10 02:20:07;;;;;;;;;;;;;;;;;;10114991;29;20049;-77
2023/11/10 02:25:16;;;;;;;0.60;0.47;;;;;;;;;;10122587;29;20022;-77
2023/11/10 02:30:19;;;;;;;1.00;0.60;;;;;;;;;;10112639;29;20065;-76
2023/11/10 02:35:23;;;;;;;0.95;0.95;;;;;;;;;;10098406;29;20061;-76
2023/11/10 02:40:27;;;;;;;0.43;0.32;;;;;;;;;;10106388;29;20136;-76
2023/11/10 02:45:31;;;;;;;0.77;0.40;;;;;;;;;;10108468;29;20427;-76
2023/11/10 02:50:35;;;;;;;1.20;0.43;;;;;;;;;;10120344;29;20044;-76
2023/11/10 02:55:39;;;;;;;0.85;0.60;;;;;;;;;;10122133;29;20057;-77
2023/11/10 03:00:43;;;;;;;0.93;0.30;;;;;;;;;;10108223;29;20045;-76
2023/11/10 03:05:47;;;;;;;0.43;0.43;;;;;;;;;;10108878;29;20045;-76
2023/11/10 03:10:52;;;;;;;1.13;0.50;;;;;;;;;;10101621;29;20053;-77
2023/11/10 03:15:55;;;;;;;1.15;0.40;;;;;;;;;;10090681;29;20152;-77
2023/11/10 03:21:00;;;;;;;1.30;0.50;;;;;;;;;;10105156;29;20075;-77
2023/11/10 03:39:07;;;;;;;0.77;0.52;;;;;;;;;;10126147;29;20057;-76
2023/11/10 03:44:14;;;;;;;;;;;;;;;;;;10579159;23;20052;-80
2023/11/10 03:49:17;;;;;;;1.15;0.40;;;;;;;;;;10176370;29;19969;-81
2023/11/10 03:54:22;;;;;;;5.00;0.90;;;;;;;;;;10151399;29;20056;-81
2023/11/10 03:59:26;;;;;;;2.28;0.60;;;;;;;;;;10152574;29;20139;-81
2023/11/10 04:04:31;;;;;;;1.08;0.40;;;;;;;;;;10156290;29;20056;-81
2023/11/10 04:09:36;;;;;;;1.43;0.67;;;;;;;;;;10164252;29;20072;-81
2023/11/10 04:14:40;;;;;;;0.63;0.47;;;;;;;;;;10154868;29;20102;-81
2023/11/10 04:19:44;;;;;;;0.30;0.30;;;;;;;;;;10147171;29;20130;-81
2023/11/10 04:24:49;;;;;;;4.50;0.73;;;;;;;;;;10151389;29;20075;-81
2023/11/10 04:29:52;;;;;;;1.70;0.50;;;;;;;;;;10153347;29;20479;-81
2023/11/10 04:34:55;;;;;;;1.58;0.32;;;;;;;;;;10147516;29;20130;-81
2023/11/10 04:40:00;;;;;;;0.93;0.50;;;;;;;;;;10157905;29;20148;-82
2023/11/10 04:45:04;;;;;;;0.65;0.65;;;;;;;;;;10145066;29;20135;-81
2023/11/10 04:50:08;;;;;;;1.05;0.50;;;;;;;;;;10161229;29;20114;-81
2023/11/10 04:55:13;;;;;;;0.65;0.35;;;;;;;;;;10164989;29;20099;-81
2023/11/10 05:00:17;;;;;;;0.60;0.40;;;;;;;;;;10176896;29;20771;-81
2023/11/10 05:05:21;;;;;;;1.92;0.50;;;;;;;;;;10175573;29;20046;-81
2023/11/10 05:10:26;;;;;;;1.30;0.60;;;;;;;;;;10183153;29;20151;-84
2023/11/10 05:15:29;;;;;;;1.45;0.68;;;;;;;;;;10177000;29;20075;-83
2023/11/10 05:20:33;;;;;;;1.92;0.70;;;;;;;;;;10167074;29;20048;-84
2023/11/10 05:25:37;;;;;;;1.70;0.63;;;;;;;;;;10170821;29;20805;-83
2023/11/10 05:30:41;;;;;;;1.50;0.90;;;;;;;;;;10178068;29;20226;-83
2023/11/10 05:35:44;;;;;;;2.97;0.70;;;;;;;;;;10166415;29;20078;-84
2023/11/10 05:40:49;;;;;;;2.83;0.57;;;;;;;;;;10164871;29;20052;-83
2023/11/10 05:45:52;;;;;;;3.10;1.05;;;;;;;;;;10168352;29;20136;-80
2023/11/10 05:50:55;;;;;;;2.03;0.80;;;;;;;;;;10152204;29;20062;-80
2023/11/10 05:56:01;;;;;;;4.75;1.13;;;;;;;;;;10153081;29;20047;-81
2023/11/10 06:01:04;;;;;;;1.92;0.70;;;;;;;;;;10179726;29;20099;-80
2023/11/10 06:06:08;;;;;;;1.15;0.65;;;;;;;;;;10164100;29;20123;-82
2023/11/10 06:11:21;;;;;;;1.10;0.60;;;;;;;;;;10166310;29;20052;-80
2023/11/10 06:16:24;;;;;;;1.48;0.50;;;;;;;;;;10172477;29;20071;-80
2023/11/10 06:21:27;;;;;;;0.70;0.38;;;;;;;;;;10155649;29;20056;-80
2023/11/10 06:26:32;;;;;;;0.75;0.50;;;;;;;;;;10177335;29;20539;-80
2023/11/10 06:31:35;;;;;;;1.25;0.40;;;;;;;;;;10170440;29;20127;-80
2023/11/10 06:36:39;;;;;;;2.42;0.40;;;;;;;;;;10160895;29;20512;-82
2023/11/10 06:41:43;;;;;;;2.03;0.50;;;;;;;;;;10166106;29;20055;-81
2023/11/10 06:46:47;;;;;;;1.50;0.50;;;;;;;;;;10167056;29;20047;-81
2023/11/10 06:51:50;;;;;;;2.40;0.75;;;;;;;;;;10161632;29;20052;-81
2023/11/10 06:56:55;;;;;;;1.60;0.57;;;;;;;;;;10178927;29;20066;-82
2023/11/10 07:01:59;;;;;;;0.85;0.43;;;;;;;;;;10151908;29;20044;-82
2023/11/10 07:07:02;;;;;;;1.17;0.50;;;;;;;;;;10164825;29;20060;-82
2023/11/10 07:12:08;;;;;;;3.45;0.70;;;;;;;;;;10175675;29;20088;-83
2023/11/10 07:17:14;;;;;;;1.80;0.60;;;;;;;;;;10190654;29;20459;-82
2023/11/10 07:22:18;;;;;;;3.85;0.75;;;;;;;;;;10192840;29;20056;-83
2023/11/10 07:27:25;;;;;;;1.98;0.70;;;;;;;;;;10181994;29;20075;-83
2023/11/10 07:32:29;;;;;;;2.38;0.95;;;;;;;;;;10158824;29;20086;-83
2023/11/10 07:37:35;;;;;;;2.40;0.73;;;;;;;;;;10151990;29;20048;-83
2023/11/10 07:42:45;;;;;;;3.85;0.60;;;;;;;;;;10155357;29;20154;-83
2023/11/10 07:47:50;;;;;;;1.05;0.32;;;;;;;;;;10160100;29;20052;-82
2023/11/10 07:52:54;;;;;;;2.00;0.40;;;;;;;;;;10165222;29;20079;-82
2023/11/10 07:57:59;;;;;;;3.20;0.82;;;;;;;;;;10168203;29;20055;-82
2023/11/10 08:03:03;;;;;;;1.60;0.70;;;;;;;;;;10165167;29;20088;-83
2023/11/10 08:08:07;;;;;;;1.15;0.50;;;;;;;;;;10175784;29;20052;-83
2023/11/10 08:13:11;;;;;;;0.70;0.57;;;;;;;;;;10159614;29;20044;-82
2023/11/10 08:18:16;;;;;;;1.08;0.50;;;;;;;;;;10163243;29;20051;-82
2023/11/10 08:23:20;;;;;;;2.05;0.70;;;;;;;;;;10174850;29;20064;-83
2023/11/10 08:28:24;;;;;;;3.33;0.77;;;;;;;;;;10173455;29;20520;-83
2023/11/10 08:33:30;;;;;;;2.60;0.63;;;;;;;;;;10160750;29;20082;-83
2023/11/10 08:38:33;;;;;;;1.40;0.50;;;;;;;;;;10172005;29;20056;-83
2023/11/10 08:43:39;;;;;;;0.80;0.40;;;;;;;;;;10179997;29;20086;-83
2023/11/10 08:48:46;;;;;;;1.77;0.70;;;;;;;;;;10197886;29;20134;-83
2023/11/10 08:53:49;;;;;;;1.17;0.50;;;;;;;;;;10201272;29;20283;-83
2023/11/10 08:58:54;;;;;;;1.02;0.60;;;;;;;;;;10191027;29;20524;-83
2023/11/10 09:03:57;;;;;;;1.67;0.60;;;;;;;;;;10169948;29;20415;-82
2023/11/10 09:09:05;;;;;;;1.40;0.63;;;;;;;;;;10191131;29;20119;-83
2023/11/10 09:14:10;;;;;;;2.35;0.80;;;;;;;;;;10183828;29;20085;-82
2023/11/10 09:19:13;;;;;;;3.17;1.08;;;;;;;;;;10193635;29;20066;-82
2023/11/10 09:24:18;;;;;;;0.75;0.50;;;;;;;;;;10179696;29;20052;-83
2023/11/10 09:29:23;;;;;;;1.48;0.75;;;;;;;;;;10176007;23;1071069;-76
2023/11/10 09:34:31;;;;;;;2.70;0.60;;;;;;;;;;10191819;29;20056;-76
2023/11/10 09:39:35;;;;;;;0.82;0.40;;;;;;;;;;10193720;29;20094;-76
2023/11/10 09:44:41;;;;;;;1.92;0.60;;;;;;;;;;10197415;29;20107;-76
2023/11/10 09:49:46;;;;;;;0.88;0.70;;;;;;;;;;10172884;29;20071;-76
2023/11/10 09:54:52;;;;;;;2.22;0.77;;;;;;;;;;10164068;29;20058;-76
2023/11/10 10:00:00;;;;;;;0.85;0.47;;;;;;;;;;10172392;29;20052;-76
2023/11/10 10:05:30;;;;;;;2.55;0.90;;;;;;;;;;10169800;29;20053;-76
2023/11/10 10:10:39;;;;;;;2.08;0.90;;;;;;;;;;10174814;29;20056;-76
2023/11/10 10:16:25;;;;;;;1.48;0.70;;;;;;;;;;10171570;29;20148;-77
2023/11/10 10:22:34;;;;;;;2.65;0.70;;;;;;;;;;10123859;29;20076;-75
2023/11/10 10:27:50;;;;;;;2.05;0.95;;;;;;;;;;10168975;29;20058;-74
2023/11/10 10:33:05;;;;;;;2.15;0.73;;;;;;;;;;10169297;29;20505;-74
2023/11/10 10:38:21;;;;;;;0.60;0.50;;;;;;;;;;10170296;29;20044;-74
2023/11/10 10:43:45;;;;;;;1.45;0.55;;;;;;;;;;10170554;29;20066;-76
2023/11/10 10:49:06;;;;;;;2.20;1.10;;;;;;;;;;10150618;29;20056;-75
2023/11/10 10:54:30;;;;;;;1.25;0.60;;;;;;;;;;10144632;29;20052;-74
2023/11/10 10:59:55;;;;;;;;;;;;;;;;;;10159147;29;20048;-75
2023/11/10 11:05:59;;;;;;;;;;;;;;;;;;;;;
2023/11/10 11:11:27;;;;;;;2.38;0.90;;;;;;;;;;10160324;29;20044;-74
2023/11/10 11:16:57;;;;;;;1.65;0.80;;;;;;;;;;10145736;29;20071;-74
2023/11/10 11:22:19;;;;;;;6.85;0.93;;;;;;;;;;10171290;29;20059;-75
2023/11/10 11:27:26;;;;;;;3.42;0.90;;;;;;;;;;10162686;29;20058;-74
2023/11/10 11:32:33;;;;;;;2.53;0.70;;;;;;;;;;10195409;29;20429;-74
2023/11/10 11:37:39;;;;;;;3.05;0.47;;;;;;;;;;10193184;29;20416;-74
2023/11/10 11:42:43;;;;;;;2.40;0.83;;;;;;;;;;10177994;29;20059;-75
2023/11/10 11:47:50;;;;;;;2.42;0.82;;;;;;;;;;10183634;29;20052;-74
2023/11/10 11:53:03;;;;;;;1.15;0.73;;;;;;;;;;10196987;29;20586;-74
2023/11/10 11:58:09;;;;;;;1.40;0.60;;;;;;;;;;10185881;29;20044;-74
2023/11/10 12:03:14;;;;;;;1.92;0.60;;;;;;;;;;10186325;29;20138;-75
2023/11/10 12:08:30;;;;;;;3.33;1.05;;;;;;;;;;10194501;29;20569;-74
2023/11/10 12:13:34;;;;;;;3.72;0.90;;;;;;;;;;10192801;29;20057;-74
2023/11/10 12:18:41;;;;;;;5.32;0.73;;;;;;;;;;10168229;29;20070;-74
2023/11/10 12:23:59;;;;;;;2.13;0.70;;;;;;;;;;10173669;29;20044;-74
2023/11/10 12:29:04;;;;;;;2.80;0.70;;;;;;;;;;10178859;29;20051;-75
2023/11/10 12:34:08;;;;;;;2.60;0.85;;;;;;;;;;10189423;29;20420;-74
2023/11/10 12:39:27;;;;;;;4.03;1.00;;;;;;;;;;10187025;29;20052;-75
2023/11/10 12:44:40;;;;;;;4.30;1.60;;;;;;;;;;10177813;29;20628;-74
2023/11/10 12:49:47;;;;;;;1.80;0.80;;;;;;;;;;10183662;29;20039;-74
2023/11/10 12:55:09;;;;;;;1.75;0.77;;;;;;;;;;10179345;29;20043;-74
2023/11/10 13:00:21;;;;;;;3.20;1.17;;;;;;;;;;10183622;29;20051;-74
2023/11/10 13:05:27;;;;;;;4.18;1.30;;;;;;;;;;10193671;29;20063;-74
2023/11/10 13:10:35;;;;;;;3.08;1.17;;;;;;;;;;10185789;29;20051;-75
2023/11/10 13:15:38;;;;;;;5.78;1.40;;;;;;;;;;10183911;29;20044;-75
2023/11/10 13:20:41;;;;;;;5.05;1.10;;;;;;;;;;10191569;29;20043;-74
2023/11/10 13:25:46;;;;;;;1.85;0.68;;;;;;;;;;10195715;29;20058;-74
2023/11/10 13:30:49;;;;;;;2.47;0.93;;;;;;;;;;10196811;29;20531;-75
2023/11/10 13:35:52;;;;;;;1.85;0.70;;;;;;;;;;10183833;29;20044;-74
2023/11/10 13:40:57;;;;;;;1.98;0.73;;;;;;;;;;10199372;29;20540;-74
2023/11/10 13:46:00;;;;;;;2.05;0.65;;;;;;;;;;10189623;29;20416;-74
2023/11/10 13:51:04;;;;;;;1.08;0.52;;;;;;;;;;10188681;29;20089;-74
2023/11/10 13:56:09;;;;;;;1.88;0.55;;;;;;;;;;10187655;29;20076;-74
2023/11/10 14:01:12;;;;;;;0.93;0.50;;;;;;;;;;10192575;29;20080;-75
2023/11/10 14:06:17;;;;;;;1.60;0.60;;;;;;;;;;10191124;29;20092;-74
2023/11/10 14:11:24;;;;;;;2.53;0.57;;;;;;;;;;10188619;29;20071;-74
2023/11/10 14:16:27;;;;;;;1.73;0.80;;;;;;;;;;10196020;29;20127;-74
2023/11/10 14:21:30;;;;;;;1.05;0.60;;;;;;;;;;10189460;29;20056;-75
2023/11/10 14:26:35;;;;;;;2.22;0.93;;;;;;;;;;10154491;29;20078;-74
2023/11/10 14:31:39;;;;;;;1.67;0.52;;;;;;;;;;10175846;29;20519;-74
2023/11/10 14:36:42;;;;;;;1.30;0.45;;;;;;;;;;10186524;29;20046;-74
2023/11/10 14:41:47;;;;;;;1.38;0.80;;;;;;;;;;10190674;29;20058;-74
2023/11/10 14:46:52;;;;;;;0.90;0.50;;;;;;;;;;10186599;29;20062;-74
2023/11/10 14:51:57;;;;;;;2.10;0.60;;;;;;;;;;10176652;29;20075;-74
2023/11/10 14:57:02;;;;;;;0.70;0.57;;;;;;;;;;10159332;29;20045;-74
2023/11/10 15:02:07;;;;;;;0.80;0.60;;;;;;;;;;10194833;29;20063;-74
2023/11/10 15:07:10;;;;;;;0.65;0.50;;;;;;;;;;10192480;29;20095;-75
2023/11/10 15:12:15;;;;;;;0.73;0.40;;;;;;;;;;10169884;29;20083;-74
2023/11/10 15:17:18;;;;;;;1.15;0.30;;;;;;;;;;10173255;29;20072;-74
2023/11/10 15:22:21;;;;;;;1.08;0.60;;;;;;;;;;10172570;29;20049;-74
2023/11/10 15:27:26;;;;;;;0.85;0.30;;;;;;;;;;10214364;23;20067;-74
2023/11/10 15:32:30;;;;;;;0.73;0.40;;;;;;;;;;10198070;29;20082;-74
2023/11/10 15:37:41;;;;;;;0.90;0.50;;;;;;;;;;10177684;29;20052;-74
2023/11/10 15:42:46;;;;;;;1.30;0.50;;;;;;;;;;10176703;29;20048;-77
2023/11/10 15:47:49;;;;;;;0.45;0.30;;;;;;;;;;10188238;29;20156;-76
2023/11/10 15:52:52;;;;;;;0.57;0.40;;;;;;;;;;10188914;29;20044;-76
2023/11/10 15:57:57;;;;;;;1.37;0.40;;;;;;;;;;10187591;29;20048;-77
2023/11/10 16:03:01;;;;;;;1.55;0.40;;;;;;;;;;10184474;29;20627;-76
2023/11/10 16:08:07;;;;;;;0.50;0.38;;;;;;;;;;10181253;29;20056;-76
2023/11/10 16:13:12;;;;;;;0.45;0.43;;;;;;;;;;10167806;29;20072;-76
2023/11/10 16:18:16;;;;;;;1.95;0.65;;;;;;;;;;10165335;29;20107;-76
2023/11/10 16:23:20;;;;;;;0.85;0.57;;;;;;;;;;10173616;29;20513;-76
2023/11/10 16:28:25;;;;;;;0.82;0.60;;;;;;;;;;10180217;29;20056;-77
2023/11/10 16:33:29;;;;;;;2.00;0.50;;;;;;;;;;10180195;29;20131;-76
2023/11/10 16:38:32;;;;;;;1.38;0.50;;;;;;;;;;10179758;29;20040;-76
2023/11/10 16:43:37;;;;;;;2.30;0.77;;;;;;;;;;10159195;29;20426;-77
2023/11/10 16:48:41;;;;;;;1.55;0.77;;;;;;;;;;10157283;29;20096;-77
2023/11/10 16:53:45;;;;;;;1.92;1.13;;;;;;;;;;10159899;29;20509;-77
2023/11/10 16:58:50;;;;;;;1.75;0.93;;;;;;;;;;10183594;29;20478;-76
2023/11/10 17:03:53;;;;;;;2.78;1.02;;;;;;;;;;10166027;29;20075;-77
2023/11/10 17:08:57;;;;;;;4.32;1.35;;;;;;;;;;10180135;29;20118;-76
2023/11/10 17:14:02;;;;;;;2.13;0.80;;;;;;;;;;10164857;29;20040;-76
2023/11/10 17:19:06;;;;;;;2.20;0.90;;;;;;;;;;10175377;29;20043;-76
2023/11/10 17:24:10;;;;;;;5.68;1.50;;;;;;;;;;10152441;29;20047;-76
2023/11/10 17:29:15;;;;;;;6.63;2.33;;;;;;;;;;10161501;29;20044;-76
2023/11/10 17:34:18;;;;;;;4.93;2.70;;;;;;;;;;10181081;29;20115;-77
2023/11/10 17:39:21;;;;;;;2.13;1.23;;;;;;;;;;10176148;29;20049;-76
2023/11/10 17:44:26;;;;;;;1.00;0.80;;;;;;;;;;10162890;29;20469;-77
2023/11/10 17:49:29;;;;;;;1.75;0.93;;;;;;;;;;10167034;29;20055;-76
2023/11/10 17:54:33;;;;;;;1.98;1.20;;;;;;;;;;10153716;29;20071;-74
2023/11/10 17:59:39;;;;;;;3.50;1.52;;;;;;;;;;10179257;29;20056;-74
2023/11/10 18:04:42;;;;;;;5.53;2.00;;;;;;;;;;10190390;29;20987;-76
2023/11/10 18:09:49;;;;;;;2.42;1.23;;;;;;;;;;10173537;29;20044;-76
2023/11/10 18:14:53;;;;;;;2.40;1.05;;;;;;;;;;10175724;29;20075;-76
2023/11/10 18:19:57;;;;;;;1.45;0.70;;;;;;;;;;10187641;29;20509;-76
2023/11/10 18:25:01;;;;;;;2.45;1.05;;;;;;;;;;10175347;29;20055;-76
2023/11/10 18:30:09;;;;;;;2.72;1.00;;;;;;;;;;10164838;29;20040;-77
2023/11/10 18:35:14;;;;;;;1.95;0.70;;;;;;;;;;10197297;29;20055;-76
2023/11/10 18:40:17;;;;;;;2.03;0.95;;;;;;;;;;10164595;29;20040;-76
2023/11/10 18:45:22;;;;;;;2.40;1.02;;;;;;;;;;10177562;29;20051;-76
2023/11/10 18:50:25;;;;;;;4.05;1.42;;;;;;;;;;10181271;29;20061;-76
2023/11/10 18:55:30;;;;;;;7.97;2.45;;;;;;;;;;10166389;29;20068;-77
2023/11/10 19:00:35;;;;;;;7.68;2.38;;;;;;;;;;10171323;29;20083;-76
2023/11/10 19:05:38;;;;;;;7.15;2.50;;;;;;;;;;10163962;29;20513;-77
2023/11/10 19:10:42;;;;;;;4.47;1.80;;;;;;;;;;10189723;29;20059;-77
2023/11/10 19:15:46;;;;;;;4.85;1.92;;;;;;;;;;10182866;29;20044;-77
2023/11/10 19:20:50;;;;;;;4.20;1.50;;;;;;;;;;10180387;29;20078;-76
2023/11/10 19:25:54;;;;;;;5.28;2.17;;;;;;;;;;10184632;29;20068;-76
2023/11/10 19:30:59;;;;;;;6.13;1.45;;;;;;;;;;10163110;29;20056;-76
2023/11/10 19:36:03;;;;;;;5.77;1.40;;;;;;;;;;10173329;29;20075;-76
2023/11/10 19:41:12;;;;;;;4.60;1.80;;;;;;;;;;10186785;29;20055;-77
2023/11/10 19:46:17;;;;;;;3.53;1.35;;;;;;;;;;10180025;29;20106;-76
2023/11/10 19:51:20;;;;;;;5.18;1.65;;;;;;;;;;10187276;29;20135;-77
2023/11/10 19:56:27;;;;;;;3.95;1.40;;;;;;;;;;10168374;29;20071;-76
2023/11/10 20:01:34;;;;;;;6.18;2.72;;;;;;;;;;10168536;29;20107;-76
2023/11/10 20:06:37;;;;;;;5.38;1.88;;;;;;;;;;10171451;29;20055;-76
2023/11/10 20:11:44;;;;;;;4.57;1.50;;;;;;;;;;10166363;29;20544;-76
2023/11/10 20:16:50;;;;;;;5.60;1.40;;;;;;;;;;10166321;29;20051;-76
2023/11/10 20:21:53;;;;;;;2.90;1.13;;;;;;;;;;10186102;29;20051;-77
2023/11/10 20:27:03;;;;;;;3.55;1.20;;;;;;;;;;10189098;29;20054;-77
2023/11/10 20:32:10;;;;;;;5.82;1.80;;;;;;;;;;10157343;29;20103;-78
2023/11/10 20:37:19;;;;;;;3.25;1.30;;;;;;;;;;10195611;29;20421;-77
2023/11/10 20:42:24;;;;;;;4.65;1.42;;;;;;;;;;10183393;29;20131;-77
2023/11/10 20:48:11;;;;;;;4.90;1.58;;;;;;;;;;10178442;29;20047;-77
2023/11/10 20:53:22;;;;;;;7.00;1.52;;;;;;;;;;10086594;29;20069;-77
2023/11/10 20:58:29;;;;;;;5.13;1.65;;;;;;;;;;10173737;29;20416;-77
2023/11/10 21:03:34;;;;;;;6.10;2.33;;;;;;;;;;10153890;29;20123;-77
2023/11/10 21:08:42;;;;;;;2.60;1.70;;;;;;;;;;10172935;29;20068;-77
2023/11/10 21:13:54;;;;;;;2.25;1.58;;;;;;;;;;10188421;29;20306;-77
2023/11/10 21:18:59;;;;;;;4.05;1.52;;;;;;;;;;10173110;29;20138;-77
2023/11/10 21:24:07;;;;;;;5.20;1.83;;;;;;;;;;10177137;29;20084;-77
2023/11/10 21:29:10;;;;;;;2.20;1.50;;;;;;;;;;10214932;23;20052;-77
2023/11/10 21:34:14;;;;;;;3.55;1.67;;;;;;;;;;10195581;29;20606;-77
2023/11/10 21:39:21;;;;;;;8.07;1.70;;;;;;;;;;10180111;29;20050;-77
2023/11/10 21:44:24;;;;;;;2.30;1.20;;;;;;;;;;10172722;29;20062;-77
2023/11/10 21:49:30;;;;;;;5.07;1.63;;;;;;;;;;10199021;29;20064;-77
2023/11/10 21:54:34;;;;;;;3.77;1.80;;;;;;;;;;10174852;29;20055;-77
2023/11/10 21:59:39;;;;;;;4.63;1.95;;;;;;;;;;10191277;29;20089;-77
2023/11/10 22:04:47;;;;;;;4.22;1.75;;;;;;;;;;10190632;29;20181;-76
2023/11/10 22:09:52;;;;;;;4.50;1.10;;;;;;;;;;10185418;29;20066;-77
2023/11/10 22:14:55;;;;;;;3.22;1.30;;;;;;;;;;10194591;29;20044;-77
2023/11/10 22:19:58;;;;;;;4.70;1.50;;;;;;;;;;10174457;29;20055;-76
2023/11/10 22:25:04;;;;;;;6.55;1.45;;;;;;;;;;10186121;29;20446;-77
2023/11/10 22:30:08;;;;;;;;;;;;;;;;;;10184122;29;20055;-76
2023/11/10 22:35:13;;;;;;;2.65;0.93;;;;;;;;;;10191035;29;19933;-76
2023/11/10 22:40:18;;;;;;;2.95;1.10;;;;;;;;;;10194550;29;20052;-76
2023/11/10 22:45:21;;;;;;;4.03;1.23;;;;;;;;;;10160221;29;20044;-76
2023/11/10 22:50:25;;;;;;;3.97;1.13;;;;;;;;;;10195744;29;20359;-76
2023/11/10 22:55:30;;;;;;;2.35;1.02;;;;;;;;;;10168728;29;20146;-76
2023/11/10 23:00:33;;;;;;;3.83;1.20;;;;;;;;;;10178224;29;20048;-76
2023/11/10 23:05:36;;;;;;;5.10;1.10;;;;;;;;;;10181542;29;20043;-77
2023/11/10 23:10:41;;;;;;;1.35;1.02;;;;;;;;;;10185900;29;20453;-76
2023/11/10 23:15:45;;;;;;;2.60;1.10;;;;;;;;;;10188627;29;20547;-76
2023/11/10 23:20:48;;;;;;;1.95;1.10;;;;;;;;;;10191447;29;20051;-76
2023/11/10 23:25:53;;;;;;;1.35;0.70;;;;;;;;;;10177397;29;20091;-76
2023/11/10 23:30:56;;;;;;;1.02;0.60;;;;;;;;;;10185244;29;20150;-76
2023/11/10 23:36:00;;;;;;;1.05;0.80;;;;;;;;;;10182247;29;20066;-76
2023/11/10 23:41:06;;;;;;;1.33;0.82;;;;;;;;;;10180572;29;20055;-77
2023/11/10 23:46:10;;;;;;;0.40;0.40;;;;;;;;;;10189781;29;20059;-77
2023/11/10 23:51:14;;;;;;;0.75;0.50;;;;;;;;;;10181328;29;20051;-76
2023/11/10 23:56:19;;;;;;;1.63;0.70;;;;;;;;;;10185262;29;20062;-76
